Home > Products > Valid Products > TAF

000
FTUS42 KILM 261614 AAC
TAFCRE
TAF AMD
KCRE 261614Z 2616/2712 29004KT 6SM BR SCT006 BKN017
     FM261700 34007KT 6SM BR BKN008
     FM261800 35010KT P6SM VCSH BKN012
      TEMPO 2620/2622 5SM -SHRA
     FM270000 01009KT P6SM OVC014=



000
FTUS42 KILM 261613 AAB
TAFMYR
TAF AMD
KMYR 261613Z 2616/2712 29004KT 6SM BR SCT003 BKN035
     FM261700 34007KT 4SM BR BKN006
     FM261800 35010KT P6SM VCSH BKN012
      TEMPO 2620/2622 5SM -SHRA
     FM270000 01009KT P6SM OVC014=



000
FTUS42 KILM 261510 AAB
TAFCRE
TAF AMD
KCRE 261510Z 2615/2712 29004KT 6SM BR SCT006 BKN020
     FM261600 34007KT 4SM BR BKN006
     FM261800 35010KT P6SM VCSH BKN012
      TEMPO 2620/2622 5SM -SHRA
     FM270000 01009KT P6SM OVC014=



000
FTUS42 KILM 261303 AAA
TAFCRE
TAF AMD
KCRE 261303Z 2613/2712 29004KT 6SM BR SCT003 BKN012
     FM261430 34007KT 4SM BR BKN006
     FM261800 35010KT P6SM VCSH BKN012
      TEMPO 2620/2622 5SM -SHRA
     FM270000 01009KT P6SM OVC014=



000
FTUS42 KILM 261303 AAA
TAFCRE
TAF AMD
KCRE 261303Z 2613/2712 29004KT 6SM BR SCT003 BKN012
     FM261430 34007KT 4SM BR BKN006
     FM261800 35010KT P6SM VCSH BKN012
      TEMPO 2620/2622 5SM -SHRA
     FM270000 01009KT P6SM OVC014=



000
FTUS42 KILM 261243 AAA
TAFFLO
TAF AMD
KFLO 261243Z 2613/2712 27005KT 6SM BR BKN007
     FM261500 34007KT 4SM BR BKN006
     FM261800 35010KT P6SM VCSH BKN012
      TEMPO 2619/2622 5SM -SHRA
     FM270000 01009KT P6SM OVC014=



000
FTUS42 KILM 261243 AAA
TAFMYR
TAF AMD
KMYR 261243Z 2613/2712 29004KT 6SM BR SCT003 BKN020
     FM261600 34007KT 4SM BR BKN006
     FM261800 35010KT P6SM VCSH BKN012
      TEMPO 2620/2622 5SM -SHRA
     FM270000 01009KT P6SM OVC014=



000
FTUS42 KILM 261243 AAA
TAFFLO
TAF AMD
KFLO 261243Z 2613/2712 27005KT 6SM BR BKN007
     FM261500 34007KT 4SM BR BKN006
     FM261800 35010KT P6SM VCSH BKN012
      TEMPO 2619/2622 5SM -SHRA
     FM270000 01009KT P6SM OVC014=



000
FTUS42 KILM 261243 AAA
TAFMYR
TAF AMD
KMYR 261243Z 2613/2712 29004KT 6SM BR SCT003 BKN020
     FM261600 34007KT 4SM BR BKN006
     FM261800 35010KT P6SM VCSH BKN012
      TEMPO 2620/2622 5SM -SHRA
     FM270000 01009KT P6SM OVC014=



000
FTUS42 KILM 261150 CCA
TAFLBT
TAF COR
KLBT 261150Z 2612/2712 02005KT 2SM BR BKN004 BKN020
     FM261500 36007KT 4SM BR BKN006
     FM261800 35010KT P6SM VCSH BKN012
     FM270000 01009KT P6SM OVC014=



000
FTUS42 KILM 261150 CCA
TAFLBT
TAF COR
KLBT 261150Z 2612/2712 02005KT 2SM BR BKN004 BKN020
     FM261500 36007KT 4SM BR BKN006
     FM261800 35010KT P6SM VCSH BKN012
     FM270000 01009KT P6SM OVC014=



000
FTUS42 KILM 261120
TAFCRE
TAF
KCRE 261120Z 2612/2712 29004KT 6SM BR SCT003 BKN035
     FM261600 34007KT 4SM BR BKN006
     FM261800 35010KT P6SM VCSH BKN012
      TEMPO 2620/2622 5SM -SHRA
     FM270000 01009KT P6SM OVC014=



000
FTUS42 KILM 261120
TAFILM
TAF
KILM 261120Z 2612/2712 29004KT 4SM BR BKN003 BKN018
      TEMPO 2612/2614 1SM BR
     FM261600 29007KT P6SM VCSH BKN008 BKN020
     FM261800 35010KT P6SM VCSH SCT025 BKN050
     FM270000 01009KT P6SM OVC014=



000
FTUS42 KILM 261120
TAFFLO
TAF
KFLO 261120Z 2612/2712 27005KT 6SM BR SCT004 BKN020
     FM261500 34007KT 4SM BR BKN006
     FM261800 35010KT P6SM VCSH BKN012
      TEMPO 2619/2622 5SM -SHRA
     FM270000 01009KT P6SM OVC014=



000
FTUS42 KILM 261120
TAFMYR
TAF
KMYR 261120Z 2612/2712 29004KT 6SM BR SCT003 BKN035
     FM261600 34007KT 4SM BR BKN006
     FM261800 35010KT P6SM VCSH BKN012
      TEMPO 2620/2622 5SM -SHRA
     FM270000 01009KT P6SM OVC014=



000
FTUS42 KILM 261120
TAFLBT
TAF
KLBT 261120Z 2612/2712 02005KT 3SM BR BKN004 BKN020
     FM261500 36007KT 4SM BR BKN006
     FM261800 35010KT P6SM VCSH BKN012
     FM270000 01009KT P6SM OVC014=



000
FTUS42 KILM 260937 AAC
TAFFLO
TAF AMD
KFLO 260937Z 2610/2706 15003KT 6SM BR BKN020
     FM261200 27005KT 1SM BR OVC004
     FM261500 28008KT P6SM SCT250
     FM261800 29012KT P6SM SCT250
     FM270000 02008KT P6SM BKN025=



000
FTUS42 KILM 260937 AAC
TAFLBT
TAF AMD
KLBT 260937Z 2610/2706 02004KT 4SM BR OVC002
     FM261400 30003KT 4SM BR OVC007
     FM261800 31010KT P6SM OVC015
     FM262100 01011KT P6SM OVC025
     FM270000 03013KT P6SM OVC025
     FM270300 03009KT P6SM OVC050=



000
FTUS42 KILM 260934 AAA
TAFCRE
TAF AMD
KCRE 260934Z 2610/2706 26003KT P6SM SCT009 BKN040
     FM261100 29005KT 4SM BR OVC004
     FM261500 30007KT P6SM BKN007
     FM261800 26009KT P6SM FEW250
     FM270300 03007KT P6SM OVC008=



000
FTUS42 KILM 260838 CCA
TAFILM
TAF COR
KILM 260838Z 2609/2706 29004KT 1SM BR BKN003 BKN018
      TEMPO 2609/2612 1/2SM FG
     FM261400 29007KT P6SM VCSH BKN008 BKN020
     FM261800 35010KT P6SM VCSH SCT025 BKN050
     FM270000 01009KT P6SM OVC007=



000
FTUS42 KILM 260838 CCA
TAFILM
TAF COR
KILM 260838Z 2609/2706 29004KT 1SM BR BKN003 BKN018
      TEMPO 2609/2612 1/2SM FG
     FM261400 29007KT P6SM VCSH BKN008 BKN020
     FM261800 35010KT P6SM VCSH SCT025 BKN050
     FM270000 01009KT P6SM OVC007=



000
FTUS42 KILM 260836 AAB
TAFLBT
TAF AMD
KLBT 260836Z 2609/2706 02004KT 1SM BR OVC002
     FM261400 30003KT 4SM BR OVC007
     FM261800 31010KT P6SM OVC015 PROB30 2618/2621 5SM -RA OVC015
     FM262100 01011KT P6SM OVC025 PROB30 2621/2624 5SM -DZ OVC015
     FM270000 03013KT P6SM OVC025 PROB30 2700/2703 P6SM -DZ OVC015
     FM270300 03009KT P6SM OVC050 PROB30 2703/2706 P6SM -RA OVC020=



000
FTUS42 KILM 260836 AAB
TAFLBT
TAF AMD
KLBT 260836Z 2609/2706 02004KT 1SM BR OVC002
     FM261400 30003KT 4SM BR OVC007
     FM261800 31010KT P6SM OVC015 PROB30 2618/2621 5SM -RA OVC015
     FM262100 01011KT P6SM OVC025 PROB30 2621/2624 5SM -DZ OVC015
     FM270000 03013KT P6SM OVC025 PROB30 2700/2703 P6SM -DZ OVC015
     FM270300 03009KT P6SM OVC050 PROB30 2703/2706 P6SM -RA OVC020=



000
FTUS42 KILM 260835 AAA
TAFMYR
TAF AMD
KMYR 260835Z 2609/2706 24009KT P6SM SCT040
     FM261000 24004KT 5SM BR SCT004 OVC009
     FM261500 28010G20KT P6SM SCT008 SCT025
     FM262100 33012KT P6SM VCSH BKN025 BKN040
     FM270300 36011G18KT P6SM OVC007
      AMD LTD TO CLD VIS AND WIND TIL 261100=



000
FTUS42 KILM 260835 AAB
TAFFLO
TAF AMD
KFLO 260835Z 2609/2706 15003KT 6SM BR SCT015
     FM260930 26005KT 2SM BR OVC012
     FM261200 27005KT 1SM BR OVC004
     FM261500 28008KT P6SM SCT250
     FM261800 29012KT P6SM SCT250 PROB30 2618/2621 P6SM -SHRA BKN040
     FM270000 02008KT P6SM BKN025=



000
FTUS42 KILM 260835 AAA
TAFMYR
TAF AMD
KMYR 260835Z 2609/2706 24009KT P6SM SCT040
     FM261000 24004KT 5SM BR SCT004 OVC009
     FM261500 28010G20KT P6SM SCT008 SCT025
     FM262100 33012KT P6SM VCSH BKN025 BKN040
     FM270300 36011G18KT P6SM OVC007
      AMD LTD TO CLD VIS AND WIND TIL 261100=



000
FTUS42 KILM 260835 AAB
TAFFLO
TAF AMD
KFLO 260835Z 2609/2706 15003KT 6SM BR SCT015
     FM260930 26005KT 2SM BR OVC012
     FM261200 27005KT 1SM BR OVC004
     FM261500 28008KT P6SM SCT250
     FM261800 29012KT P6SM SCT250 PROB30 2618/2621 P6SM -SHRA BKN040
     FM270000 02008KT P6SM BKN025=



000
FTUS42 KILM 260834 AAB
TAFILM
TAF AMD
KILM 260834Z 2609/2706 29004KT 3SM BR SCT003 BKN018
      TEMPO 2609/2612 1SM BR BKN003
     FM261400 29007KT P6SM VCSH BKN008 BKN020
     FM261800 35010KT P6SM VCSH SCT025 BKN050
     FM270000 01009KT P6SM OVC007=



000
FTUS42 KILM 260834 AAB
TAFILM
TAF AMD
KILM 260834Z 2609/2706 29004KT 3SM BR SCT003 BKN018
      TEMPO 2609/2612 1SM BR BKN003
     FM261400 29007KT P6SM VCSH BKN008 BKN020
     FM261800 35010KT P6SM VCSH SCT025 BKN050
     FM270000 01009KT P6SM OVC007=



000
FTUS42 KILM 260700 AAA
TAFLBT
TAF AMD
KLBT 260700Z 2607/2706 00000KT 3SM BR OVC003
     FM261400 30003KT 4SM BR OVC007
     FM261800 31010KT P6SM OVC015 PROB30 2618/2621 5SM -RA OVC015
     FM262100 01011KT P6SM OVC025 PROB30 2621/2624 5SM -DZ OVC015
     FM270000 03013KT P6SM OVC025 PROB30 2700/2703 P6SM -DZ OVC015
     FM270300 03009KT P6SM OVC050 PROB30 2703/2706 P6SM -RA OVC020=



000
FTUS42 KILM 260700 AAA
TAFLBT
TAF AMD
KLBT 260700Z 2607/2706 00000KT 3SM BR OVC003
     FM261400 30003KT 4SM BR OVC007
     FM261800 31010KT P6SM OVC015 PROB30 2618/2621 5SM -RA OVC015
     FM262100 01011KT P6SM OVC025 PROB30 2621/2624 5SM -DZ OVC015
     FM270000 03013KT P6SM OVC025 PROB30 2700/2703 P6SM -DZ OVC015
     FM270300 03009KT P6SM OVC050 PROB30 2703/2706 P6SM -RA OVC020=



000
FTUS42 KILM 260659 AAA
TAFFLO
TAF AMD
KFLO 260659Z 2607/2706 15003KT 1SM BR BKN015
     FM260900 26005KT 2SM BR OVC012
     FM261200 27005KT 1SM BR OVC004
     FM261500 28008KT P6SM SCT250
     FM261800 29012KT P6SM SCT250 PROB30 2618/2621 P6SM -SHRA BKN040
     FM270000 02008KT P6SM BKN025=



000
FTUS42 KILM 260659 AAA
TAFFLO
TAF AMD
KFLO 260659Z 2607/2706 15003KT 1SM BR BKN015
     FM260900 26005KT 2SM BR OVC012
     FM261200 27005KT 1SM BR OVC004
     FM261500 28008KT P6SM SCT250
     FM261800 29012KT P6SM SCT250 PROB30 2618/2621 P6SM -SHRA BKN040
     FM270000 02008KT P6SM BKN025=



000
FTUS42 KILM 260535
TAFCRE
TAF
KCRE 260535Z 2606/2706 26003KT P6SM SCT009 BKN040
     FM260900 29005KT 4SM BR OVC004
     FM261500 30007KT P6SM BKN007
     FM261800 26009KT P6SM FEW250 PROB30 2618/2621 5SM -SHRA SCT050
     FM270300 03007KT P6SM OVC008=



000
FTUS42 KILM 260535
TAFFLO
TAF
KFLO 260535Z 2606/2706 00000KT P6SM SCT025 BKN035 BKN060
     FM260900 26005KT 2SM BR OVC015
     FM261200 27005KT 1SM BR OVC004
     FM261500 28008KT P6SM SCT250
     FM261800 29012KT P6SM SCT250 PROB30 2618/2621 P6SM -SHRA BKN040
     FM270000 02008KT P6SM BKN025=



000
FTUS42 KILM 260535
TAFLBT
TAF
KLBT 260535Z 2606/2706 00000KT 1/4SM FG BKN002
     FM261400 30003KT 4SM BR OVC007
     FM261800 31010KT P6SM OVC015 PROB30 2618/2621 5SM -RA OVC015
     FM262100 01011KT P6SM OVC025 PROB30 2621/2624 5SM -DZ OVC015
     FM270000 03013KT P6SM OVC025 PROB30 2700/2703 P6SM -DZ OVC015
     FM270300 03009KT P6SM OVC050 PROB30 2703/2706 P6SM -RA OVC020=



000
FTUS42 KILM 260535
TAFILM
TAF
KILM 260535Z 2606/2706 29004KT P6SM VCSH BKN020
     FM260800 32004KT 5SM BR OVC004
     FM261400 29007KT P6SM VCSH BKN008 BKN020
     FM261800 35010KT P6SM VCSH SCT025 BKN050
     FM270000 01009KT P6SM OVC007=



000
FTUS42 KILM 260535
TAFMYR
TAF
KMYR 260535Z 2606/2706 24009KT P6SM SCT040
     FM260800 24004KT 5SM BR SCT004 OVC009
     FM261500 28010G20KT P6SM SCT008 SCT025
     FM262100 33012KT P6SM VCSH BKN025 BKN040
     FM270300 36011G18KT P6SM OVC007
      AMD LTD TO CLD VIS AND WIND TIL 261100=



000
FTUS42 KILM 260351 AAB
TAFLBT
TAF AMD
KLBT 260351Z 2604/2624 VRB04KT 3SM BR SCT015 BKN035
      TEMPO 2604/2607 1SM BR BKN015
     FM260700 VRB04KT 3SM BR BKN004 OVC008
     FM261300 29008KT P6SM SCT006 BKN015
     FM261700 01012G20KT P6SM VCSH SCT025 BKN050=



000
FTUS42 KILM 260247 CCC
TAFLBT
TAF COR
KLBT 260247Z 2603/2624 VRB04KT 2SM BR SCT005 BKN035
      TEMPO 2603/2607 1SM BR
     FM260700 VRB04KT 3SM BR BKN004 OVC008
     FM261300 29008KT P6SM SCT006 BKN015
     FM261700 01012G20KT P6SM VCSH SCT025 BKN050=



000
FTUS42 KILM 260246 AAA
TAFLBT
TAF AMD
KLBT 260246Z 2603/2624 VRB04KT 2SM BR SCT005 BKN035
      TEMPO 2603/2607 3SM BR
     FM260700 VRB04KT 3SM BR BKN004 OVC008
     FM261300 29008KT P6SM SCT006 BKN015
     FM261700 01012G20KT P6SM VCSH SCT025 BKN050=



000
FTUS42 KILM 260246 AAA
TAFLBT
TAF AMD
KLBT 260246Z 2603/2624 VRB04KT 2SM BR SCT005 BKN035
      TEMPO 2603/2607 3SM BR
     FM260700 VRB04KT 3SM BR BKN004 OVC008
     FM261300 29008KT P6SM SCT006 BKN015
     FM261700 01012G20KT P6SM VCSH SCT025 BKN050=



000
FTUS42 KILM 260130 AAB
TAFILM
TAF AMD
KILM 260130Z 2602/2624 22010KT P6SM SCT012 SCT040
      TEMPO 2605/2607 28008KT 6SM -SHRA SCT015 SCT025 BKN060
     FM260700 25004KT 4SM BR SCT004 SCT150
     FM261000 26008KT P6SM BKN006
     FM261400 27010KT P6SM VCSH SCT008 BKN020
     FM261800 35010KT P6SM VCSH SCT025 BKN050=



000
FTUS42 KILM 260130 AAB
TAFILM
TAF AMD
KILM 260130Z 2602/2624 22010KT P6SM SCT012 SCT040
      TEMPO 2605/2607 28008KT 6SM -SHRA SCT015 SCT025 BKN060
     FM260700 25004KT 4SM BR SCT004 SCT150
     FM261000 26008KT P6SM BKN006
     FM261400 27010KT P6SM VCSH SCT008 BKN020
     FM261800 35010KT P6SM VCSH SCT025 BKN050=



000
FTUS42 KILM 260106 AAA
TAFFLO
TAF AMD
KFLO 260106Z 2601/2624 23004KT 6SM BR VCSH SCT040 BKN130
     FM260600 24003KT 3SM BR SCT004 SCT150
     FM261000 26007KT 6SM BR BKN008
     FM261400 27011KT P6SM SCT015 SCT025 BKN060
     FM261900 34012G20KT P6SM VCSH SCT025 BKN060=



000
FTUS42 KILM 260103 AAA
TAFMYR
TAF AMD
KMYR 260103Z 2601/2624 22008KT P6SM VCSH SCT025 SCT040
      TEMPO 2604/2606 28008KT 3SM SHRA SCT015 SCT025 BKN060
     FM260600 25004KT 3SM BR SCT004 SCT150
     FM261000 26008KT P6SM SCT008 SCT025 BKN060
     FM262000 36010KT P6SM VCSH BKN025 BKN040
      AMD LTD TO CLD VIS AND WIND 2604/2611=



000
FTUS42 KILM 260103 AAA
TAFMYR
TAF AMD
KMYR 260103Z 2601/2624 22008KT P6SM VCSH SCT025 SCT040
      TEMPO 2604/2606 28008KT 3SM SHRA SCT015 SCT025 BKN060
     FM260600 25004KT 3SM BR SCT004 SCT150
     FM261000 26008KT P6SM SCT008 SCT025 BKN060
     FM262000 36010KT P6SM VCSH BKN025 BKN040
      AMD LTD TO CLD VIS AND WIND 2604/2611=



000
FTUS42 KILM 260102 AAA
TAFCRE
TAF AMD
KCRE 260102Z 2601/2624 22010KT P6SM VCSH SCT025 SCT040
      TEMPO 2604/2606 28008KT 5SM -SHRA SCT015 SCT025 BKN060
     FM260600 25004KT 3SM BR SCT004 SCT150
     FM261000 26008KT P6SM SCT008 SCT025 BKN060
     FM262000 36010KT P6SM VCSH BKN025 BKN040=



000
FTUS42 KILM 252348 CCC
TAFILM
TAF COR
KILM 252348Z 2600/2624 18005KT P6SM VCSH BKN012 OVC025
     FM260200 19007KT P6SM SCT015 BKN025
      TEMPO 2605/2607 28008KT 3SM SHRA SCT015 SCT025 BKN060
     FM260700 25004KT 4SM BR SCT004 SCT150
     FM261000 26008KT P6SM BKN006
     FM261400 27010KT P6SM VCSH SCT008 BKN020
     FM261800 35010KT P6SM VCSH SCT025 BKN050=



000
FTUS42 KILM 252348 CCC
TAFILM
TAF COR
KILM 252348Z 2600/2624 18005KT P6SM VCSH BKN012 OVC025
     FM260200 19007KT P6SM SCT015 BKN025
      TEMPO 2605/2607 28008KT 3SM SHRA SCT015 SCT025 BKN060
     FM260700 25004KT 4SM BR SCT004 SCT150
     FM261000 26008KT P6SM BKN006
     FM261400 27010KT P6SM VCSH SCT008 BKN020
     FM261800 35010KT P6SM VCSH SCT025 BKN050=



000
FTUS42 KILM 252342 CCB
TAFLBT
TAF COR
KLBT 252342Z 2600/2624 VRB04KT 6SM BR VCSH SCT025 BKN040
      TEMPO 2600/2604 5SM BR BKN025
     FM260400 22003KT 3SM BR VCSH BKN005
     FM261000 25005KT 4SM BR BKN007
     FM261400 27008KT P6SM SCT006 BKN015
     FM261700 01012G20KT P6SM VCSH SCT025 BKN050=



000
FTUS42 KILM 252341 CCA
TAFFLO
TAF COR
KFLO 252341Z 2600/2624 23007KT P6SM VCSH SCT025 BKN040
     FM260600 24003KT 3SM BR SCT004 SCT150
     FM261000 26007KT 6SM BR BKN008
     FM261400 27011KT P6SM SCT015 SCT025 BKN060
     FM261900 34012G20KT P6SM VCSH SCT025 BKN060=



000
FTUS42 KILM 252339
TAFILM
TAF
KILM 252339Z 2600/2624 20010G15KT P6SM SCT025 BKN040
      TEMPO 2600/2602 BKN025
     FM260200 22010KT P6SM VCSH SCT007 OVC015
      TEMPO 2608/2610 BKN006
     FM261300 26013G18KT P6SM FEW040=



000
FTUS42 KILM 252339
TAFCRE
TAF
KCRE 252339Z 2600/2624 20012KT P6SM VCSH SCT015 BKN025
      TEMPO 2604/2606 28008KT 5SM -SHRA SCT015 SCT025 BKN060
     FM260600 25004KT 3SM BR SCT004 SCT150
     FM261000 26008KT P6SM SCT008 SCT025 BKN060
     FM262000 36010KT P6SM VCSH BKN025 BKN040=



000
FTUS42 KILM 252339
TAFFLO
TAF
KFLO 252339Z 2600/2624 20008KT P6SM VCSH SCT025 BKN040
     FM260600 22003KT 3SM BR SCT004 SCT150
     FM261000 25007KT 6SM BR BKN008
     FM261400 26011KT P6SM SCT015 BKN025
     FM261900 34012G20KT P6SM VCSH SCT025 BKN060=



000
FTUS42 KILM 252339
TAFMYR
TAF
KMYR 252339Z 2600/2624 20010KT P6SM VCSH SCT015 BKN025
      TEMPO 2604/2606 28008KT 3SM SHRA SCT015 SCT025 BKN060
     FM260600 25004KT 3SM BR SCT004 SCT150
     FM261000 26008KT P6SM SCT008 SCT025 BKN060
     FM262000 36010KT P6SM VCSH BKN025 BKN040
      AMD LTD TO CLD VIS AND WIND 2604/2611=



000
FTUS42 KILM 252339
TAFILM
TAF
KILM 252339Z 2600/2624 20010G15KT P6SM SCT025 BKN040
      TEMPO 2600/2602 BKN025
     FM260200 22010KT P6SM VCSH SCT007 OVC015
      TEMPO 2608/2610 BKN006
     FM261300 26013G18KT P6SM FEW040=



000
FTUS42 KILM 252339
TAFCRE
TAF
KCRE 252339Z 2600/2624 20012KT P6SM VCSH SCT015 BKN025
      TEMPO 2604/2606 28008KT 5SM -SHRA SCT015 SCT025 BKN060
     FM260600 25004KT 3SM BR SCT004 SCT150
     FM261000 26008KT P6SM SCT008 SCT025 BKN060
     FM262000 36010KT P6SM VCSH BKN025 BKN040=



000
FTUS42 KILM 252339
TAFLBT
TAF
KLBT 252339Z 2600/2624 VRB04KT 5SM BR VCSH SCT025 BKN040
      TEMPO 2600/2602 5SM BR BKN025
     FM260400 22003KT 3SM BR VCSH BKN005
     FM261000 25005KT 4SM BR BKN007
     FM261400 27008KT P6SM SCT006 BKN015
     FM261700 01012G20KT P6SM VCSH SCT025 BKN050=



000
FTUS42 KILM 252339
TAFMYR
TAF
KMYR 252339Z 2600/2624 20010KT P6SM VCSH SCT015 BKN025
      TEMPO 2604/2606 28008KT 3SM SHRA SCT015 SCT025 BKN060
     FM260600 25004KT 3SM BR SCT004 SCT150
     FM261000 26008KT P6SM SCT008 SCT025 BKN060
     FM262000 36010KT P6SM VCSH BKN025 BKN040
      AMD LTD TO CLD VIS AND WIND 2604/2611=



000
FTUS42 KILM 252339
TAFLBT
TAF
KLBT 252339Z 2600/2624 VRB04KT 5SM BR VCSH SCT025 BKN040
      TEMPO 2600/2602 5SM BR BKN025
     FM260400 22003KT 3SM BR VCSH BKN005
     FM261000 25005KT 4SM BR BKN007
     FM261400 27008KT P6SM SCT006 BKN015
     FM261700 01012G20KT P6SM VCSH SCT025 BKN050=



000
FTUS42 KILM 252339
TAFFLO
TAF
KFLO 252339Z 2600/2624 20008KT P6SM VCSH SCT025 BKN040
     FM260600 22003KT 3SM BR SCT004 SCT150
     FM261000 25007KT 6SM BR BKN008
     FM261400 26011KT P6SM SCT015 BKN025
     FM261900 34012G20KT P6SM VCSH SCT025 BKN060=



000
FTUS42 KILM 252339 CCA
TAFLBT
TAF COR
KLBT 252339Z 2600/2624 VRB04KT 6SM BR VCSH SCT025 BKN040
      TEMPO 2600/2604 5SM BR BKN025
     FM260400 22003KT 3SM BR VCSH BKN005
     FM261000 25005KT 4SM BR BKN007
     FM261400 27008KT P6SM SCT006 BKN015
     FM261700 01012G20KT P6SM VCSH SCT025 BKN050=



000
FTUS42 KILM 252202 CCB
TAFLBT
TAF COR
KLBT 252202Z 2522/2618 14003KT P6SM VCSH SCT015 BKN025 OVC040
      TEMPO 2522/2524 19009KT 3SM -RA SCT007 BKN015
     FM260000 19008KT P6SM VCSH BKN020 OVC040
     FM260500 24004KT 4SM BR SCT008 SCT150
      TEMPO 2606/2610 2SM BR
     FM261000 34008KT 6SM BR BKN006
     FM261500 01010KT P6SM VCSH BKN015=



000
FTUS42 KILM 252202 CCB
TAFLBT
TAF COR
KLBT 252202Z 2522/2618 14003KT P6SM VCSH SCT015 BKN025 OVC040
      TEMPO 2522/2524 19009KT 3SM -RA SCT007 BKN015
     FM260000 19008KT P6SM VCSH BKN020 OVC040
     FM260500 24004KT 4SM BR SCT008 SCT150
      TEMPO 2606/2610 2SM BR
     FM261000 34008KT 6SM BR BKN006
     FM261500 01010KT P6SM VCSH BKN015=



000
FTUS42 KILM 252201 AAA
TAFLBT
TAF AMD
KLBT 252201Z 2522/2618 14003KT P6SM VCSH SCT015 BKN025 OVC040
      TEMPO 2522/2524 19009KT 3SM -RA SCT007 BKN015
     FM260000 19008KT P6SM VCSH BKN020 OVC040
     FM260500 24004KT 4SM BR SCT008 SCT150
      TEMPO 2606/2610 2SM BR BKN008
     FM261000 34008KT 6SM BR BKN006
     FM261500 01010KT P6SM VCSH BKN015=



000
FTUS42 KILM 252137 AAB
TAFCRE
TAF AMD
KCRE 252137Z 2522/2618 20012G18KT P6SM VCSH BKN015 OVC025
     FM260500 23005KT P6SM SCT015 SCT150
     FM261000 25007KT P6SM SCT008 BKN015
     FM261500 36010KT P6SM VCSH BKN025 BKN040=



000
FTUS42 KILM 252135 AAB
TAFMYR
TAF AMD
KMYR 252135Z 2522/2618 20012G18KT P6SM VCSH BKN015 OVC025
     FM260500 23007KT P6SM SCT015 SCT150
     FM261000 26008KT P6SM SCT008 BKN015
     FM261600 36010KT P6SM VCSH BKN025 BKN040=



000
FTUS42 KILM 252005 AAA
TAFCRE
TAF AMD
KCRE 252005Z 2520/2618 19010KT P6SM VCSH SCT015 BKN025 BKN040
     FM260200 22010KT P6SM BKN014
      TEMPO 2608/2610 BKN006
     FM261300 26013G18KT P6SM FEW040=



000
FTUS42 KILM 252005 CCB
TAFFLO
TAF COR
KFLO 252005Z 2520/2618 19009KT P6SM VCSH SCT015 BKN025 BKN040
     FM260200 VRB04KT P6SM BKN015
     FM260400 23003KT 4SM BR BKN006
     FM261400 29011KT P6SM SCT030=



000
FTUS42 KILM 252002 AAA
TAFMYR
TAF AMD
KMYR 252002Z 2520/2618 20012KT P6SM VCSH SCT015 BKN025 OVC040
     FM260200 22010KT P6SM BKN014
      TEMPO 2608/2610 BKN006
     FM261300 26013G18KT P6SM FEW040=



000
FTUS42 KILM 252000 AAA
TAFFLO
TAF AMD
KFLO 252000Z 2520/2618 19009KT P6SM VCSH BKN020 BKN040
     FM260200 VRB04KT P6SM BKN015
     FM260400 23003KT 4SM BR BKN006
     FM261400 29011KT P6SM SCT030=



000
FTUS42 KILM 251958 AAA
TAFILM
TAF AMD
KILM 251958Z 2520/2618 13006KT P6SM VCSH SCT030 OVC080
     FM252200 20010G15KT P6SM SCT025 BKN040
      TEMPO 2522/2602 BKN025
     FM260200 22010KT P6SM VCSH SCT007 OVC015
      TEMPO 2608/2610 BKN006
     FM261300 26013G18KT P6SM FEW040=



000
FTUS42 KILM 251958 AAA
TAFILM
TAF AMD
KILM 251958Z 2520/2618 13006KT P6SM VCSH SCT030 OVC080
     FM252200 20010G15KT P6SM SCT025 BKN040
      TEMPO 2522/2602 BKN025
     FM260200 22010KT P6SM VCSH SCT007 OVC015
      TEMPO 2608/2610 BKN006
     FM261300 26013G18KT P6SM FEW040=



000
FTUS42 KILM 251854 CCC
TAFMYR
TAF COR
KMYR 251854Z 2518/2618 15008KT P6SM SCT040 OVC100
     FM251900 20009G15KT P6SM BKN040 OVC100
     FM260200 22010KT P6SM BKN014
      TEMPO 2608/2610 BKN006
     FM261300 26013G18KT P6SM FEW040=



000
FTUS42 KILM 251832 CCA
TAFLBT
TAF COR
KLBT 251832Z 2518/2618 17006KT P6SM VCSH SCT050 OVC100
     FM252100 20009G15KT P6SM SCT014 BKN020
     FM260200 22010KT P6SM SCT007 OVC016
     FM261400 29011KT P6SM SCT030=



000
FTUS42 KILM 251832 CCA
TAFLBT
TAF COR
KLBT 251832Z 2518/2618 17006KT P6SM VCSH SCT050 OVC100
     FM252100 20009G15KT P6SM SCT014 BKN020
     FM260200 22010KT P6SM SCT007 OVC016
     FM261400 29011KT P6SM SCT030=



000
FTUS42 KILM 251831 CCB
TAFMYR
TAF COR
KMYR 251831Z 2518/2618 15008KT P6SM SCT040 OVC100
     FM252100 20009G15KT P6SM BKN040 OVC100
     FM260200 22010KT P6SM BKN014
      TEMPO 2608/2610 BKN006
     FM261300 26013G18KT P6SM FEW040=



000
FTUS42 KILM 251830 CCA
TAFMYR
TAF COR
KMYR 251830Z 2518/2618 15008KT 6SM -RA BKN040 OVC100
     FM251900 20009G15KT P6SM BKN040 OVC100
     FM260200 22010KT P6SM BKN014
      TEMPO 2608/2610 BKN006
     FM261300 26013G18KT P6SM FEW040=



000
FTUS42 KILM 251829 CCA
TAFFLO
TAF COR
KFLO 251829Z 2518/2618 16008KT P6SM VCSH SCT025 SCT045 BKN100
      TEMPO 2518/2520 -RA BKN025
     FM252000 22006KT P6SM BKN040 OVC090
     FM260200 VRB04KT P6SM BKN015
     FM260400 23003KT 4SM BR BKN006
     FM261400 29011KT P6SM SCT030=



000
FTUS42 KILM 251829 CCA
TAFFLO
TAF COR
KFLO 251829Z 2518/2618 16008KT P6SM VCSH SCT025 SCT045 BKN100
      TEMPO 2518/2520 -RA BKN025
     FM252000 22006KT P6SM BKN040 OVC090
     FM260200 VRB04KT P6SM BKN015
     FM260400 23003KT 4SM BR BKN006
     FM261400 29011KT P6SM SCT030=



000
FTUS42 KILM 251734
TAFFLO
TAF
KFLO 251734Z 2518/2618 20009KT P6SM SCT060 BKN100
     FM252000 22006KT P6SM BKN040 OVC090
     FM260200 VRB04KT P6SM BKN015
     FM260400 23003KT 4SM BR BKN006
     FM261400 29011KT P6SM SCT030=



000
FTUS42 KILM 251734
TAFCRE
TAF
KCRE 251734Z 2518/2618 21008KT 6SM -RA SCT040 OVC100
     FM252000 21009G15KT P6SM BKN040 OVC100
     FM260200 22010KT P6SM BKN014
      TEMPO 2608/2610 BKN006
     FM261300 26013G18KT P6SM FEW040=



000
FTUS42 KILM 251734
TAFMYR
TAF
KMYR 251734Z 2518/2618 16008KT 6SM -RA BKN040 OVC100
      TEMPO 2518/2519 4SM SHRA BKN020
     FM251900 20009G15KT P6SM BKN040 OVC100
     FM260200 22010KT P6SM BKN014
      TEMPO 2608/2610 BKN006
     FM261300 26013G18KT P6SM FEW040=



000
FTUS42 KILM 251734
TAFLBT
TAF
KLBT 251734Z 2518/2618 17006KT 5SM -RA SCT050 OVC100
     FM251900 VRB05KT P6SM BKN040 OVC100
     FM252000 20009G15KT P6SM SCT014 BKN020
     FM260200 22010KT P6SM SCT007 OVC016
     FM261400 29011KT P6SM SCT030=



000
FTUS42 KILM 251734
TAFILM
TAF
KILM 251734Z 2518/2618 19010KT 6SM -RA SCT045 OVC100
     FM252000 20010G15KT P6SM SCT024 BKN040
     FM260200 22010KT P6SM VCSH SCT007 OVC015
      TEMPO 2608/2610 BKN006
     FM261300 26013G18KT P6SM FEW040=



000
FTUS42 KILM 251734
TAFFLO
TAF
KFLO 251734Z 2518/2618 20009KT P6SM SCT060 BKN100
     FM252000 22006KT P6SM BKN040 OVC090
     FM260200 VRB04KT P6SM BKN015
     FM260400 23003KT 4SM BR BKN006
     FM261400 29011KT P6SM SCT030=



000
FTUS42 KILM 251734
TAFLBT
TAF
KLBT 251734Z 2518/2618 17006KT 5SM -RA SCT050 OVC100
     FM251900 VRB05KT P6SM BKN040 OVC100
     FM252000 20009G15KT P6SM SCT014 BKN020
     FM260200 22010KT P6SM SCT007 OVC016
     FM261400 29011KT P6SM SCT030=



000
FTUS42 KILM 251734
TAFMYR
TAF
KMYR 251734Z 2518/2618 16008KT 6SM -RA BKN040 OVC100
      TEMPO 2518/2519 4SM SHRA BKN020
     FM251900 20009G15KT P6SM BKN040 OVC100
     FM260200 22010KT P6SM BKN014
      TEMPO 2608/2610 BKN006
     FM261300 26013G18KT P6SM FEW040=



000
FTUS42 KILM 251734
TAFCRE
TAF
KCRE 251734Z 2518/2618 21008KT 6SM -RA SCT040 OVC100
     FM252000 21009G15KT P6SM BKN040 OVC100
     FM260200 22010KT P6SM BKN014
      TEMPO 2608/2610 BKN006
     FM261300 26013G18KT P6SM FEW040=



000
FTUS42 KILM 251734
TAFILM
TAF
KILM 251734Z 2518/2618 19010KT 6SM -RA SCT045 OVC100
     FM252000 20010G15KT P6SM SCT024 BKN040
     FM260200 22010KT P6SM VCSH SCT007 OVC015
      TEMPO 2608/2610 BKN006
     FM261300 26013G18KT P6SM FEW040=



000
FTUS42 KILM 251426 AAA
TAFLBT
TAF AMD
KLBT 251426Z 2514/2612 23009KT 5SM -SHRA BKN050
     FM252200 20009G15KT P6SM -RA SCT014 BKN020
     FM260200 22010KT P6SM SCT007 OVC015=



000
FTUS42 KILM 251425 AAA
TAFFLO
TAF AMD
KFLO 251425Z 2514/2612 VRB03KT 6SM -RA BKN070
     FM251600 20008KT 5SM -SHRA SCT025 BKN040
     FM251800 19011KT 4SM -RA BR VCTS SCT007 BKN015 BKN030CB
     FM260200 VRB04KT P6SM BKN015=



000
FTUS42 KILM 251120
TAFCRE
TAF
KCRE 251120Z 2512/2612 VRB03KT P6SM BKN120
     FM251300 24010KT P6SM VCSH SCT040 BKN080
     FM251500 23009KT 5SM -SHRA BKN040
      TEMPO 2517/2521 2SM +SHRA BKN020
     FM252100 20009G15KT P6SM -RA SCT014 BKN020
     FM260200 22010KT P6SM BKN008=



000
FTUS42 KILM 251120
TAFILM
TAF
KILM 251120Z 2512/2612 VRB03KT P6SM BKN120
     FM251400 24010KT P6SM VCSH SCT040 BKN080
     FM251600 23009KT P6SM -SHRA BKN050
     FM252200 20009G15KT P6SM -RA SCT014 BKN020
     FM260200 22010KT P6SM SCT007 OVC015=



000
FTUS42 KILM 251120
TAFMYR
TAF
KMYR 251120Z 2512/2612 VRB03KT P6SM BKN120
     FM251300 24010KT P6SM VCSH SCT040 BKN080
     FM251500 23009KT 5SM -SHRA BKN040
      TEMPO 2517/2521 2SM +SHRA BKN020
     FM252100 20009G15KT P6SM -RA SCT014 BKN020
     FM260200 22010KT P6SM BKN008=



000
FTUS42 KILM 251120
TAFLBT
TAF
KLBT 251120Z 2512/2612 VRB03KT P6SM BKN120
     FM251400 24010KT P6SM VCSH SCT040 BKN080
     FM251600 23009KT P6SM -SHRA BKN050
     FM252200 20009G15KT P6SM -RA SCT014 BKN020
     FM260200 22010KT P6SM SCT007 OVC015=



000
FTUS42 KILM 251120
TAFFLO
TAF
KFLO 251120Z 2512/2612 VRB03KT 6SM -RA BKN070
     FM251300 20008KT 5SM -SHRA SCT025 BKN040
     FM251600 19011KT 4SM -RA BR VCTS SCT007 BKN015 BKN030CB
     FM260200 VRB04KT P6SM BKN015=



000
FTUS42 KILM 250527
TAFMYR
TAF
KMYR 250527Z 2506/2606 22007KT P6SM FEW040 BKN180
     FM251000 VRB03KT P6SM BKN120
     FM251600 23011KT P6SM VCSH SCT040 BKN080
     FM252300 20009G15KT P6SM -RA VCTS SCT007 SCT020 BKN040CB
     FM260200 23006KT P6SM VCSH SCT007 OVC015
      AMD LTD TO CLD VIS AND WIND TIL 251100=



000
FTUS42 KILM 250527
TAFILM
TAF
KILM 250527Z 2506/2606 22005KT P6SM FEW040 BKN180
     FM251000 VRB03KT P6SM BKN120
     FM251600 24010KT P6SM VCSH SCT040 BKN080
     FM252200 20009G15KT P6SM -RA VCTS SCT007 SCT020 BKN040CB
     FM260200 22010KT P6SM SCT007 OVC015=



000
FTUS42 KILM 250527
TAFLBT
TAF
KLBT 250527Z 2506/2606 VRB03KT P6SM FEW040 BKN180
     FM251000 00000KT P6SM BKN120
     FM251500 22008KT P6SM VCSH SCT025 BKN040
     FM251900 20011KT 6SM -RA VCTS SCT007 BKN015 BKN030CB
     FM260200 VRB03KT P6SM SCT007 BKN015=



000
FTUS42 KILM 250527
TAFFLO
TAF
KFLO 250527Z 2506/2606 20005KT P6SM FEW040 BKN180
     FM250900 VRB03KT P6SM BKN100
     FM251400 20008KT 6SM -SHRA SCT025 BKN040
     FM251800 19011KT 4SM -RA BR VCTS SCT007 BKN015 BKN030CB
     FM260200 VRB04KT P6SM BKN015=



000
FTUS42 KILM 250527
TAFCRE
TAF
KCRE 250527Z 2506/2606 24003KT P6SM FEW040 BKN180
     FM251000 00000KT P6SM BKN120
     FM251600 22010KT P6SM VCSH SCT040 BKN080
     FM252300 19008G15KT P6SM -RA VCTS SCT007 SCT020 BKN040CB
     FM260200 25005KT P6SM VCSH SCT007 OVC015=



000
FTUS42 KILM 242327
TAFCRE
TAF
KCRE 242327Z 2500/2524 VRB04KT P6SM FEW040 SCT250
     FM251000 00000KT P6SM BKN120
     FM251600 22010KT P6SM VCSH SCT040 BKN080
     FM252300 19008KT P6SM -RA VCTS SCT007 SCT025 BKN040CB=



000
FTUS42 KILM 242327
TAFMYR
TAF
KMYR 242327Z 2500/2524 VRB04KT P6SM FEW040 SCT250
     FM251000 VRB03KT P6SM BKN120
     FM251600 23011KT P6SM VCSH SCT040 BKN080
     FM252300 20009KT P6SM -RA VCTS SCT007 SCT025 BKN040CB
      AMD LTD TO CLD VIS AND WIND 2504/2511=



000
FTUS42 KILM 242327
TAFLBT
TAF
KLBT 242327Z 2500/2524 VRB03KT P6SM FEW040 SCT250
     FM251000 00000KT P6SM BKN120
     FM251500 22008KT P6SM VCSH SCT025 BKN040
     FM251900 20011KT 6SM -RA VCTS SCT007 BKN015 BKN030CB=



000
FTUS42 KILM 242327
TAFILM
TAF
KILM 242327Z 2500/2524 VRB03KT P6SM FEW040 SCT250
     FM251000 VRB03KT P6SM BKN120
     FM251600 24010KT P6SM VCSH SCT040 BKN080
     FM252200 20009KT P6SM -RA VCTS SCT007 SCT025 BKN040CB=



000
FTUS42 KILM 242327
TAFFLO
TAF
KFLO 242327Z 2500/2524 VRB04KT P6SM FEW040 SCT250
     FM250900 VRB03KT P6SM BKN100
     FM251400 20008KT 6SM -SHRA SCT025 BKN040
     FM251800 19011KT 4SM -RA BR VCTS SCT007 BKN015 BKN030CB=



000
FTUS42 KILM 242327
TAFILM
TAF
KILM 242327Z 2500/2524 VRB03KT P6SM FEW040 SCT250
     FM251000 VRB03KT P6SM BKN120
     FM251600 24010KT P6SM VCSH SCT040 BKN080
     FM252200 20009KT P6SM -RA VCTS SCT007 SCT025 BKN040CB=



000
FTUS42 KILM 242327
TAFMYR
TAF
KMYR 242327Z 2500/2524 VRB04KT P6SM FEW040 SCT250
     FM251000 VRB03KT P6SM BKN120
     FM251600 23011KT P6SM VCSH SCT040 BKN080
     FM252300 20009KT P6SM -RA VCTS SCT007 SCT025 BKN040CB
      AMD LTD TO CLD VIS AND WIND 2504/2511=



000
FTUS42 KILM 242327
TAFLBT
TAF
KLBT 242327Z 2500/2524 VRB03KT P6SM FEW040 SCT250
     FM251000 00000KT P6SM BKN120
     FM251500 22008KT P6SM VCSH SCT025 BKN040
     FM251900 20011KT 6SM -RA VCTS SCT007 BKN015 BKN030CB=



000
FTUS42 KILM 242327
TAFCRE
TAF
KCRE 242327Z 2500/2524 VRB04KT P6SM FEW040 SCT250
     FM251000 00000KT P6SM BKN120
     FM251600 22010KT P6SM VCSH SCT040 BKN080
     FM252300 19008KT P6SM -RA VCTS SCT007 SCT025 BKN040CB=



000
FTUS42 KILM 242327
TAFFLO
TAF
KFLO 242327Z 2500/2524 VRB04KT P6SM FEW040 SCT250
     FM250900 VRB03KT P6SM BKN100
     FM251400 20008KT 6SM -SHRA SCT025 BKN040
     FM251800 19011KT 4SM -RA BR VCTS SCT007 BKN015 BKN030CB=



000
FTUS42 KILM 241734
TAFILM
TAF
KILM 241734Z 2418/2518 32010G16KT P6SM SKC
     FM250000 VRB03KT P6SM FEW040 SCT250
     FM251000 00000KT P6SM BKN140
     FM251700 24006KT P6SM VCSH SCT040 BKN080=



000
FTUS42 KILM 241734
TAFLBT
TAF
KLBT 241734Z 2418/2518 32006KT P6SM SKC
     FM242300 VRB03KT P6SM FEW040 SCT250
     FM251000 00000KT P6SM BKN120
     FM251700 22008KT P6SM VCSH BKN050=



000
FTUS42 KILM 241734
TAFFLO
TAF
KFLO 241734Z 2418/2518 01006KT P6SM SKC
     FM242300 VRB04KT P6SM FEW040 SCT250
     FM250900 00000KT P6SM BKN100
     FM251700 20008KT 6SM -SHRA BKN045=



000
FTUS42 KILM 241734
TAFCRE
TAF
KCRE 241734Z 2418/2518 03008KT P6SM SKC
     FM242100 21006KT P6SM SKC
     FM250000 VRB04KT P6SM FEW040 SCT250
     FM251000 00000KT P6SM BKN140
     FM251700 22010KT P6SM VCSH SCT040 BKN080=



000
FTUS42 KILM 241734
TAFMYR
TAF
KMYR 241734Z 2418/2518 36009KT P6SM SKC
     FM242100 19006KT P6SM SKC
     FM250000 VRB04KT P6SM FEW040 SCT250
     FM251000 00000KT P6SM BKN140
     FM251700 20009KT P6SM VCSH SCT040 BKN080=



000
FTUS42 KILM 241120
TAFMYR
TAF
KMYR 241120Z 2412/2512 36012G20KT P6SM FEW250
     FM241800 31010KT P6SM SCT250
     FM250000 VRB04KT P6SM FEW040 SCT250
     FM251000 00000KT P6SM BKN140=



000
FTUS42 KILM 241120
TAFFLO
TAF
KFLO 241120Z 2412/2512 36010KT P6SM FEW250
     FM241600 01008KT P6SM SCT250
     FM242300 VRB04KT P6SM FEW040 SCT250
     FM250900 00000KT P6SM BKN100=



000
FTUS42 KILM 241120
TAFLBT
TAF
KLBT 241120Z 2412/2512 34006KT P6SM FEW250
     FM241700 35007KT P6SM SCT250
     FM242300 VRB03KT P6SM FEW040 SCT250
     FM251000 00000KT P6SM BKN120=



000
FTUS42 KILM 241120
TAFCRE
TAF
KCRE 241120Z 2412/2512 36011G18KT P6SM FEW250
     FM241700 32010KT P6SM SCT250
     FM250000 VRB04KT P6SM FEW040 SCT250
     FM251000 00000KT P6SM BKN140=



000
FTUS42 KILM 241120
TAFLBT
TAF
KLBT 241120Z 2412/2512 34006KT P6SM FEW250
     FM241700 35007KT P6SM SCT250
     FM242300 VRB03KT P6SM FEW040 SCT250
     FM251000 00000KT P6SM BKN120=



000
FTUS42 KILM 241120
TAFFLO
TAF
KFLO 241120Z 2412/2512 36010KT P6SM FEW250
     FM241600 01008KT P6SM SCT250
     FM242300 VRB04KT P6SM FEW040 SCT250
     FM250900 00000KT P6SM BKN100=



000
FTUS42 KILM 241120
TAFMYR
TAF
KMYR 241120Z 2412/2512 36012G20KT P6SM FEW250
     FM241800 31010KT P6SM SCT250
     FM250000 VRB04KT P6SM FEW040 SCT250
     FM251000 00000KT P6SM BKN140=



000
FTUS42 KILM 241120
TAFILM
TAF
KILM 241120Z 2412/2512 34011KT P6SM FEW250
     FM241700 34007KT P6SM SCT250
     FM250000 VRB03KT P6SM FEW040 SCT250
     FM251000 00000KT P6SM BKN140=



000
FTUS42 KILM 241120
TAFCRE
TAF
KCRE 241120Z 2412/2512 36011G18KT P6SM FEW250
     FM241700 32010KT P6SM SCT250
     FM250000 VRB04KT P6SM FEW040 SCT250
     FM251000 00000KT P6SM BKN140=



000
FTUS42 KILM 241120
TAFILM
TAF
KILM 241120Z 2412/2512 34011KT P6SM FEW250
     FM241700 34007KT P6SM SCT250
     FM250000 VRB03KT P6SM FEW040 SCT250
     FM251000 00000KT P6SM BKN140=



000
FTUS42 KILM 240718 AAA
TAFILM
TAF AMD
KILM 240718Z 2407/2506 35012G19KT P6SM SKC
     FM240800 34011KT P6SM FEW250
     FM241700 34007KT P6SM SCT250
     FM250000 VRB03KT P6SM FEW040 SCT250=



000
FTUS42 KILM 240718 AAA
TAFCRE
TAF AMD
KCRE 240718Z 2407/2506 36008KT P6SM SKC
     FM241000 36011G18KT P6SM FEW250
     FM241700 32010KT P6SM SCT250
     FM250000 VRB04KT P6SM FEW040 SCT250=



000
FTUS42 KILM 240718 AAA
TAFILM
TAF AMD
KILM 240718Z 2407/2506 35012G19KT P6SM SKC
     FM240800 34011KT P6SM FEW250
     FM241700 34007KT P6SM SCT250
     FM250000 VRB03KT P6SM FEW040 SCT250=



000
FTUS42 KILM 240718 AAA
TAFMYR
TAF AMD
KMYR 240718Z 2407/2506 35012KT P6SM SKC
     FM240800 36012G20KT P6SM FEW250
     FM241800 31010KT P6SM SCT250
     FM250000 VRB04KT P6SM FEW040 SCT250
      AMD LTD TO CLD VIS AND WIND TIL 241100=



000
FTUS42 KILM 240520
TAFCRE
TAF
KCRE 240520Z 2406/2506 VRB03KT P6SM FEW250
     FM241000 36011G18KT P6SM FEW250
     FM241700 32010KT P6SM SCT250
     FM250000 VRB04KT P6SM FEW040 SCT250=



000
FTUS42 KILM 240520
TAFILM
TAF
KILM 240520Z 2406/2506 VRB03KT P6SM FEW250
     FM240800 34011KT P6SM FEW250
     FM241700 34007KT P6SM SCT250
     FM250000 VRB03KT P6SM FEW040 SCT250=



000
FTUS42 KILM 240520
TAFLBT
TAF
KLBT 240520Z 2406/2506 34006KT P6SM FEW250
     FM241700 35007KT P6SM SCT250
     FM242300 VRB03KT P6SM FEW040 SCT250=



000
FTUS42 KILM 240520
TAFMYR
TAF
KMYR 240520Z 2406/2506 VRB03KT P6SM FEW250
     FM240800 36012G20KT P6SM FEW250
     FM241800 31010KT P6SM SCT250
     FM250000 VRB04KT P6SM FEW040 SCT250
      AMD LTD TO CLD VIS AND WIND TIL 241100=



000
FTUS42 KILM 240520
TAFFLO
TAF
KFLO 240520Z 2406/2506 36010KT P6SM FEW250
     FM241600 01008KT P6SM SCT250
     FM242300 VRB04KT P6SM FEW040 SCT250=



000
FTUS42 KILM 232327
TAFFLO
TAF
KFLO 232327Z 2400/2424 VRB05KT P6SM FEW250
     FM240600 36008KT P6SM SKC
     FM241600 01008KT P6SM SCT250=



000
FTUS42 KILM 232327
TAFMYR
TAF
KMYR 232327Z 2400/2424 VRB05KT P6SM FEW250
     FM240600 36012G20KT P6SM SKC
     FM241800 31010KT P6SM FEW040 SCT250
      AMD LTD TO CLD VIS AND WIND 2404/2411=



000
FTUS42 KILM 232327
TAFILM
TAF
KILM 232327Z 2400/2424 VRB05KT P6SM FEW250
     FM240600 34011KT P6SM SKC
     FM241700 34007KT P6SM FEW040 SCT250=



000
FTUS42 KILM 232327
TAFCRE
TAF
KCRE 232327Z 2400/2424 VRB05KT P6SM FEW250
     FM240600 36011G18KT P6SM SKC
     FM241700 32010KT P6SM FEW040 SCT250=



000
FTUS42 KILM 232327
TAFLBT
TAF
KLBT 232327Z 2400/2424 VRB03KT P6SM FEW250
     FM240600 34006KT P6SM SKC
     FM241700 35007KT P6SM SCT250=



000
FTUS42 KILM 232327
TAFCRE
TAF
KCRE 232327Z 2400/2424 VRB05KT P6SM FEW250
     FM240600 36011G18KT P6SM SKC
     FM241700 32010KT P6SM FEW040 SCT250=



000
FTUS42 KILM 232327
TAFFLO
TAF
KFLO 232327Z 2400/2424 VRB05KT P6SM FEW250
     FM240600 36008KT P6SM SKC
     FM241600 01008KT P6SM SCT250=



000
FTUS42 KILM 232327
TAFMYR
TAF
KMYR 232327Z 2400/2424 VRB05KT P6SM FEW250
     FM240600 36012G20KT P6SM SKC
     FM241800 31010KT P6SM FEW040 SCT250
      AMD LTD TO CLD VIS AND WIND 2404/2411=



000
FTUS42 KILM 232327
TAFLBT
TAF
KLBT 232327Z 2400/2424 VRB03KT P6SM FEW250
     FM240600 34006KT P6SM SKC
     FM241700 35007KT P6SM SCT250=



000
FTUS42 KILM 232327
TAFILM
TAF
KILM 232327Z 2400/2424 VRB05KT P6SM FEW250
     FM240600 34011KT P6SM SKC
     FM241700 34007KT P6SM FEW040 SCT250=



    US Dept of Commerce
    National Oceanic and Atmospheric Administration
    National Weather Service
    1325 East West Highway
    Silver Spring, MD 20910
    Page Author: NWS Internet Services Team
Disclaimer
Information Quality
Credits
Glossary
Privacy Policy
Freedom of Information Act (FOIA)
About Us
Career Opportunities